Esneux, Belgium
Current Conditions -  °F | °C
As of 12:20 PM on Monday 22 Dec 2014 (Local Time) from EBLG Reporting Station
Broken Clouds Broken Clouds  
Wind Chill:   Ceiling: 1200
Heat Index:   Visibility: 6mi
Dew Point:   Wind: 25mph
Humidity: 87%   Direction: 210°SSW
Pressure: 30.15"   Gusts: NA
Location:  50.54°N, 5.57°E
Report Text: EBLG 221120Z 21022KT 9999 SCT007 BKN012 08/06 Q1021 TEMPO 22020G30KT 4000 BKN006
Loading
Personal Weather Stations






























Interactive Weather Map New forecast layout! Learn more

10-Day Weather Forecast

Advertisements
Track Severe Weather on mobile